• Join FlightAware (Why Join?)
  • Login
  • US Flag 
01:21PM EDT


 

Airport Tracker/Info


-or-


 

Live Flight TrackerFlight Track Log ✈ RPA3253 ✈ 09-Jun-2013 ✈ KCLT - KMSY

Flight Track Log - Related Links

Times and Time Zones

All times are in EDT time to prevent confusion due to time zone crossing. See the RPA3253 flight status page for this flight to view local times or setup timezone preferences in your user account.

Time Position Orientation Groundspeed Altitude Reporting Facility
EDT Latitude Longitude Course Direction KTS MPH feet Rate Location/Type
10:52PM 35.1933 -80.9533 249° West 149 171 1,400  Level Atlanta Center
10:54PM 35.2438 -81.2265 199° South  Level FlightAware Approximate
10:54PM 35.1231 -80.9814 198° South 245 282 3,700  Level Atlanta Center
10:55PM 35.1268 -81.2725 192° South  Level FlightAware Approximate
10:55PM 35.1044 -81.0683 255° West 277 319 6,200  Level Atlanta Center
10:56PM 35.0574 -81.3740 251° West  Level FlightAware Approximate
10:56PM 35.0878 -81.1553 257° West 277 319 8,800  Level Atlanta Center
10:57PM 35.0093 -81.5121 246° West  Level FlightAware Approximate
10:57PM 35.0650 -81.2550 254° West 272 313 11,400  Level Atlanta Center
10:58PM 34.9626 -81.6509 249° West  Level FlightAware Approximate
10:58PM 35.0461 -81.3469 256° West 281 323 13,600  Level Atlanta Center
10:59PM 35.0275 -81.4492 257° West 296 341 16,200 2,400 Climbing Atlanta Center
11:00PM 35.0044 -81.5511 255° West 303 349 18,500 2,100 Climbing Atlanta Center
11:01PM 34.9772 -81.6533 252° West 308 354 20,500 1,920 Climbing Atlanta Center
11:02PM 34.9458 -81.7556 249° West 321 369 22,400 1,680 Climbing Atlanta Center
11:03PM 34.9039 -81.8556 243° Southwest 331 381 23,900 1,440 Climbing Atlanta Center
11:04PM 34.8553 -81.9403 235° Southwest 341 392 25,300 1,260 Climbing Atlanta Center
11:05PM 34.8006 -82.0378 236° Southwest 349 402 26,500 1,200 Climbing Atlanta Center
11:06PM 34.7436 -82.1353 235° Southwest 361 415 27,700 1,200 Climbing Atlanta Center
11:07PM 34.6867 -82.2353 235° Southwest 361 415 29,000 1,440 Climbing Atlanta Center
11:08PM 34.6297 -82.3372 236° Southwest 366 421 30,600 1,440 Climbing Atlanta Center
11:09PM 34.5769 -82.4342 237° Southwest 361 415 31,900 660 Climbing Atlanta Center
11:10PM 34.5136 -82.5414 234° Southwest 361 415 32,000  Climbing Atlanta Center
11:11PM 34.4561 -82.6356 233° Southwest 361 415 32,000  Level Atlanta Center
11:12PM 34.4008 -82.7322 235° Southwest 361 415 32,000  Level Atlanta Center
11:13PM 34.3456 -82.8261 235° Southwest 355 409 32,000  Level Atlanta Center
11:14PM 34.2900 -82.9225 235° Southwest 355 409 32,000  Level Atlanta Center
11:15PM 34.2428 -83.0061 236° Southwest 350 403 32,000  Level Atlanta Center
11:16PM 34.1850 -83.1022 234° Southwest 350 403 32,000 240 Level Atlanta Center
11:17PM 34.1317 -83.1931 235° Southwest 350 403 32,500 420 Climbing Atlanta Center
11:18PM 34.0800 -83.2914 238° Southwest 350 403 32,900 240 Climbing Atlanta Center
11:19PM 34.0158 -83.3897 232° Southwest 368 423 33,000 120 Climbing Atlanta Center
11:20PM 33.9558 -83.4953 236° Southwest 379 436 33,200 360 Climbing Atlanta Center
11:21PM 33.8853 -83.6133 234° Southwest 391 450 33,800 360 Climbing Atlanta Center
11:22PM 33.8231 -83.7186 235° Southwest 401 461 34,000 60 Climbing Atlanta Center
11:23PM 33.7606 -83.8214 234° Southwest 401 461 34,000  Level Atlanta Center
11:24PM 33.7003 -83.9239 235° Southwest 385 443 34,000  Level Atlanta Center
11:25PM 33.6397 -84.0264 235° Southwest 385 443 34,000  Level Atlanta Center
11:26PM 33.5772 -84.1286 234° Southwest 385 443 34,000  Level Atlanta Center
11:27PM 33.5144 -84.2331 234° Southwest 385 443 34,000  Level Atlanta Center
11:28PM 33.4619 -84.3253 236° Southwest 385 443 34,000  Level Atlanta Center
11:29PM 33.3992 -84.4269 234° Southwest 380 437 34,000  Level Atlanta Center
11:30PM 33.3383 -84.5286 234° Southwest 380 437 34,000  Level Atlanta Center
11:31PM 33.2772 -84.6303 234° Southwest 380 437 34,000  Level Atlanta Center
11:32PM 33.2142 -84.7317 233° Southwest 380 437 34,000  Level Atlanta Center
11:33PM 33.1486 -84.8428 235° Southwest 380 437 34,000  Level Atlanta Center
11:34PM 33.0875 -84.9414 234° Southwest 375 432 34,000  Level Atlanta Center
11:35PM 33.0261 -85.0397 233° Southwest 380 437 34,000  Level Atlanta Center
11:36PM 32.9647 -85.1406 234° Southwest 380 437 34,000  Level Atlanta Center
11:37PM 32.9097 -85.2264 233° Southwest 375 432 34,000  Level Atlanta Center
11:38PM 32.8483 -85.3247 233° Southwest 381 438 34,000  Level Atlanta Center
11:39PM 32.7844 -85.4250 233° Southwest 381 438 34,000  Level Atlanta Center
11:40PM 32.7250 -85.5278 236° Southwest 381 438 34,000  Level Atlanta Center
11:41PM 32.6589 -85.6253 231° Southwest 376 433 34,000  Level Atlanta Center
11:42PM 32.5992 -85.7228 234° Southwest 376 433 34,000  Level Atlanta Center
11:43PM 32.5353 -85.8275 234° Southwest 381 438 34,000  Level Atlanta Center
11:44PM 32.4667 -85.9369 233° Southwest 381 438 34,000  Level Atlanta Center
11:45PM 32.4006 -86.0364 232° Southwest 387 445 34,000  Level Atlanta Center
11:46PM 32.3383 -86.1358 233° Southwest 387 445 34,000  Level Atlanta Center
11:47PM 32.2781 -86.2328 234° Southwest 382 440 34,000  Level Atlanta Center
11:48PM 32.2136 -86.3392 234° Southwest 382 440 34,000  Level Atlanta Center
11:49PM 32.1600 -86.4211 232° Southwest 382 440 34,000  Level Atlanta Center
11:50PM 32.0933 -86.5150 230° Southwest 377 434 34,000  Level Atlanta Center
11:51PM 32.0247 -86.6061 228° Southwest 377 434 34,000  Level Atlanta Center
11:52PM 31.9453 -86.7067 227° Southwest 377 434 34,000  Level Atlanta Center
11:53PM 31.8808 -86.7978 230° Southwest 382 440 34,000  Level Atlanta Center
11:54PM 31.8139 -86.8886 229° Southwest 382 440 34,000  Level Atlanta Center
11:55PM 31.7492 -86.9817 231° Southwest 372 428 34,000  Level Atlanta Center
11:56PM 31.6953 -87.0508 228° Southwest 372 428 34,000  Level Atlanta Center
11:57PM 31.6261 -87.1533 232° Southwest 372 428 34,000  Level Atlanta Center
11:58PM 31.5472 -87.2522 227° Southwest 362 417 34,000  Level Houston Center
11:59PM 31.4806 -87.3428 229° Southwest 365 420 34,000  Level Houston Center
12:00AM 31.3994 -87.4528 229° Southwest 370 426 34,000  Level Houston Center
12:01AM 31.3339 -87.5436 230° Southwest 367 422 34,000  Level Houston Center
12:02AM 31.2661 -87.6339 229° Southwest 368 423 34,000  Level Houston Center
12:03AM 31.1994 -87.7247 229° Southwest 364 419 34,000  Level Houston Center
12:04AM 31.1322 -87.8150 229° Southwest 367 422 34,000  Level Houston Center
12:05AM 31.0639 -87.9036 228° Southwest 367 422 34,000  Level Houston Center
12:06AM 30.9992 -87.9936 230° Southwest 365 420 34,000  Level Houston Center
12:07AM 30.9331 -88.0803 228° Southwest 360 414 34,000  Level Houston Center
12:08AM 30.8667 -88.1683 229° Southwest 362 417 34,000 -240 Level Houston Center
12:09AM 30.8025 -88.2572 230° Southwest 358 412 33,600 -960 Descending Houston Center
12:10AM 30.7644 -88.3581 246° West 341 392 32,100 -1,500 Descending Houston Center
12:11AM 30.7281 -88.4525 246° West 322 371 30,600 -1,500 Descending Houston Center
12:12AM 30.6881 -88.5500 245° Southwest 315 362 29,100 -1,440 Descending Houston Center
12:13AM 30.6522 -88.6397 245° Southwest 307 353 27,700 -1,440 Descending Houston Center
12:14AM 30.6175 -88.7272 245° Southwest 299 344 26,300 -1,440 Descending Houston Center
12:15AM 30.5836 -88.8119 245° Southwest 291 335 24,800 -1,560 Descending Houston Center
12:16AM 30.5489 -88.8975 245° Southwest 292 336 23,200 -1,560 Descending Houston Center
12:17AM 30.5183 -88.9769 246° West 290 334 21,700 -1,560 Descending Houston Center
12:18AM 30.4850 -89.0572 244° Southwest 279 321 20,100 -1,500 Descending Houston Center
12:19AM 30.4547 -89.1361 246° West 270 311 18,700 -1,380 Descending Houston Center
12:20AM 30.4231 -89.2128 244° Southwest 264 304 17,300 -1,440 Descending Houston Center
12:21AM 30.3936 -89.2858 245° Southwest 253 291 15,900 -1,680 Descending Houston Center
12:22AM 30.3717 -89.3461 247° West 249 287 14,700 -1,980 Descending Houston Center
12:22AM 30.3581 -89.3747 241° Southwest 252 290 13,900 -1,800 Descending Houston Center
12:23AM 30.3411 -89.4200 247° West 257 296 12,900 -1,920 Descending Houston Center
12:23AM 30.3269 -89.4503 242° Southwest 258 297 12,000 -1,800 Descending Houston Center
12:24AM 30.3083 -89.4986 246° West 267 307 11,100 -1,020 Descending Houston Center
12:24AM 30.2956 -89.5275 243° Southwest 263 303 11,000  Descending Houston Center
12:25AM 30.2794 -89.5700 246° West 250 288 11,100 -240 Climbing Houston Center
12:25AM 30.2669 -89.5986 243° Southwest 248 285 10,800 -1,140 Descending Houston Center
12:26AM 30.2506 -89.6386 245° Southwest 237 273 10,000 -1,500 Descending Houston Center
12:26AM 30.2378 -89.6689 244° Southwest 242 278 9,300 -1,500 Descending Houston Center
12:27AM 30.2217 -89.7097 245° Southwest 240 276 8,500 -1,500 Descending Houston Center
12:27AM 30.2106 -89.7403 247° West 240 276 7,800 -1,440 Descending Houston Center
12:28AM 30.2014 -89.7831 256° West 238 274 7,100 -1,320 Descending Houston Center
12:28AM 30.1928 -89.8144 252° West 238 274 6,500 -1,380 Descending Houston Center
12:29AM 30.1808 -89.8583 253° West 233 268 5,700 -1,500 Descending Houston Center
12:29AM 30.1736 -89.8867 254° West 235 270 5,000 -1,440 Descending Houston Center
12:30AM 30.1622 -89.9314 254° West 232 267 4,300 -1,140 Descending Houston Center
12:30AM 30.1542 -89.9583 251° West 233 268 3,900 -240 Descending Houston Center
12:31AM 30.1417 -89.9997 251° West 230 265 4,100  Climbing Houston Center
12:31AM 30.1361 -90.0269 257° West 230 265 3,900 -900 Descending Houston Center
12:32AM 30.1247 -90.0653 251° West 215 247 3,200 -1,380 Descending Houston Center
12:32AM 30.1186 -90.0925 255° West 222 255 2,500 -780 Descending Houston Center
12:33AM 30.1100 -90.1236 252° West 198 228 2,500 -540 Level Houston Center
12:33AM 30.1069 -90.1456 261° West 193 222 2,000 -360 Descending Houston Center
12:34AM 30.0989 -90.1719 251° West 136 157 2,100 -240 Climbing Houston Center
12:34AM 30.0981 -90.1919 267° West 162 186 1,800 -540 Descending Houston Center
12:35AM 30.0856 -90.2111 233° Southwest 129 148 1,600 -540 Descending Houston Center
12:35AM 30.0767 -90.2211 224° Southwest 140 161 1,300 -420 Descending Houston Center
12:36AM 30.0525 -90.2292 196° South 121 139 1,200 -540 Descending Houston Center
12:36AM 30.0436 -90.2344 207° Southwest 131 151 800 -720 Descending Houston Center
12:37AM 30.0175 -90.2403 191° South 130 150 400 -420 Descending Houston Center
12:37AM 30.0150 -90.2447 237° Southwest 127 146 400  Level Houston Center
12:39AM 29.9934 -90.2580 245° Southwest  Level Estimated